sensor_id;sensor_type;location;lat;lon;timestamp;P1;durP1;ratioP1;P2;durP2;ratioP2
40367;SDS011;26075;43.320;21.920;2023-03-11T00:01:59;13.45;;;7.13;;
40367;SDS011;26075;43.320;21.920;2023-03-11T00:07:00;6.53;;;3.33;;
40367;SDS011;26075;43.320;21.920;2023-03-11T00:12:01;6.05;;;2.92;;
40367;SDS011;26075;43.320;21.920;2023-03-11T00:17:02;6.13;;;3.03;;
40367;SDS011;26075;43.320;21.920;2023-03-11T00:22:03;5.25;;;3.25;;
40367;SDS011;26075;43.320;21.920;2023-03-11T00:27:04;5.00;;;2.22;;
40367;SDS011;26075;43.320;21.920;2023-03-11T00:32:05;5.35;;;2.78;;
40367;SDS011;26075;43.320;21.920;2023-03-11T00:37:07;7.50;;;4.07;;
40367;SDS011;26075;43.320;21.920;2023-03-11T00:42:08;7.35;;;3.58;;
40367;SDS011;26075;43.320;21.920;2023-03-11T00:47:10;4.85;;;2.60;;
40367;SDS011;26075;43.320;21.920;2023-03-11T00:52:11;6.00;;;2.47;;
40367;SDS011;26075;43.320;21.920;2023-03-11T00:57:12;3.92;;;2.30;;
40367;SDS011;26075;43.320;21.920;2023-03-11T01:02:13;4.10;;;2.20;;
40367;SDS011;26075;43.320;21.920;2023-03-11T01:07:14;4.65;;;2.78;;
40367;SDS011;26075;43.320;21.920;2023-03-11T01:12:15;4.70;;;2.85;;
40367;SDS011;26075;43.320;21.920;2023-03-11T01:17:16;5.00;;;2.35;;
40367;SDS011;26075;43.320;21.920;2023-03-11T01:22:17;3.88;;;2.08;;
40367;SDS011;26075;43.320;21.920;2023-03-11T01:27:18;4.60;;;2.03;;
40367;SDS011;26075;43.320;21.920;2023-03-11T01:32:19;4.32;;;2.03;;
40367;SDS011;26075;43.320;21.920;2023-03-11T01:37:20;6.00;;;3.13;;
40367;SDS011;26075;43.320;21.920;2023-03-11T01:42:21;4.60;;;2.30;;
40367;SDS011;26075;43.320;21.920;2023-03-11T01:47:36;4.78;;;2.28;;
40367;SDS011;26075;43.320;21.920;2023-03-11T01:52:38;5.17;;;2.73;;
40367;SDS011;26075;43.320;21.920;2023-03-11T01:57:39;6.68;;;2.40;;
40367;SDS011;26075;43.320;21.920;2023-03-11T02:02:42;5.03;;;2.50;;
40367;SDS011;26075;43.320;21.920;2023-03-11T02:07:45;6.90;;;3.05;;
40367;SDS011;26075;43.320;21.920;2023-03-11T02:12:46;6.50;;;2.60;;
40367;SDS011;26075;43.320;21.920;2023-03-11T02:17:48;6.28;;;3.15;;
40367;SDS011;26075;43.320;21.920;2023-03-11T02:22:49;5.13;;;2.70;;
40367;SDS011;26075;43.320;21.920;2023-03-11T02:27:50;7.28;;;3.83;;
40367;SDS011;26075;43.320;21.920;2023-03-11T02:32:52;6.88;;;3.88;;
40367;SDS011;26075;43.320;21.920;2023-03-11T02:37:54;4.70;;;2.97;;
40367;SDS011;26075;43.320;21.920;2023-03-11T02:42:57;6.18;;;3.55;;
40367;SDS011;26075;43.320;21.920;2023-03-11T02:47:59;6.90;;;4.13;;
40367;SDS011;26075;43.320;21.920;2023-03-11T02:53:00;6.70;;;3.95;;
40367;SDS011;26075;43.320;21.920;2023-03-11T02:58:01;9.48;;;5.28;;
40367;SDS011;26075;43.320;21.920;2023-03-11T03:03:03;10.15;;;4.60;;
40367;SDS011;26075;43.320;21.920;2023-03-11T03:08:04;8.15;;;5.30;;
40367;SDS011;26075;43.320;21.920;2023-03-11T03:13:05;8.88;;;5.15;;
40367;SDS011;26075;43.320;21.920;2023-03-11T03:18:06;7.55;;;5.22;;
40367;SDS011;26075;43.320;21.920;2023-03-11T03:23:07;9.13;;;5.45;;
40367;SDS011;26075;43.320;21.920;2023-03-11T03:28:08;13.85;;;6.82;;
40367;SDS011;26075;43.320;21.920;2023-03-11T03:33:10;10.65;;;7.72;;
40367;SDS011;26075;43.320;21.920;2023-03-11T03:38:11;11.57;;;7.05;;
40367;SDS011;26075;43.320;21.920;2023-03-11T03:43:13;12.65;;;6.32;;
40367;SDS011;26075;43.320;21.920;2023-03-11T03:48:15;10.10;;;6.70;;
40367;SDS011;26075;43.320;21.920;2023-03-11T03:53:16;12.57;;;7.35;;
40367;SDS011;26075;43.320;21.920;2023-03-11T03:58:17;12.38;;;8.10;;
40367;SDS011;26075;43.320;21.920;2023-03-11T04:03:18;9.05;;;6.45;;
40367;SDS011;26075;43.320;21.920;2023-03-11T04:08:19;10.20;;;6.38;;
40367;SDS011;26075;43.320;21.920;2023-03-11T04:13:20;10.27;;;6.32;;
40367;SDS011;26075;43.320;21.920;2023-03-11T04:18:21;11.63;;;7.45;;
40367;SDS011;26075;43.320;21.920;2023-03-11T04:23:22;12.77;;;7.18;;
40367;SDS011;26075;43.320;21.920;2023-03-11T04:28:23;10.73;;;7.05;;
40367;SDS011;26075;43.320;21.920;2023-03-11T04:33:24;9.10;;;4.53;;
40367;SDS011;26075;43.320;21.920;2023-03-11T04:38:25;9.52;;;5.78;;
40367;SDS011;26075;43.320;21.920;2023-03-11T04:43:26;10.45;;;6.63;;
40367;SDS011;26075;43.320;21.920;2023-03-11T04:48:27;11.88;;;7.90;;
40367;SDS011;26075;43.320;21.920;2023-03-11T04:53:28;10.75;;;7.90;;
40367;SDS011;26075;43.320;21.920;2023-03-11T04:58:29;12.00;;;7.95;;
40367;SDS011;26075;43.320;21.920;2023-03-11T05:03:31;10.60;;;6.90;;
40367;SDS011;26075;43.320;21.920;2023-03-11T05:08:32;12.00;;;7.32;;
40367;SDS011;26075;43.320;21.920;2023-03-11T05:13:33;13.15;;;6.88;;
40367;SDS011;26075;43.320;21.920;2023-03-11T05:18:34;9.93;;;6.07;;
40367;SDS011;26075;43.320;21.920;2023-03-11T05:23:35;11.45;;;7.28;;
40367;SDS011;26075;43.320;21.920;2023-03-11T05:28:36;10.68;;;6.18;;
40367;SDS011;26075;43.320;21.920;2023-03-11T05:33:37;8.98;;;5.70;;
40367;SDS011;26075;43.320;21.920;2023-03-11T05:38:38;7.35;;;5.32;;
40367;SDS011;26075;43.320;21.920;2023-03-11T05:43:39;9.13;;;5.97;;
40367;SDS011;26075;43.320;21.920;2023-03-11T05:48:40;11.02;;;6.97;;
40367;SDS011;26075;43.320;21.920;2023-03-11T05:53:42;15.07;;;8.07;;
40367;SDS011;26075;43.320;21.920;2023-03-11T05:58:47;14.32;;;9.77;;
40367;SDS011;26075;43.320;21.920;2023-03-11T06:03:48;13.55;;;9.10;;
40367;SDS011;26075;43.320;21.920;2023-03-11T06:08:49;11.18;;;6.60;;
40367;SDS011;26075;43.320;21.920;2023-03-11T06:13:51;11.48;;;6.70;;
40367;SDS011;26075;43.320;21.920;2023-03-11T06:18:53;12.77;;;8.45;;
40367;SDS011;26075;43.320;21.920;2023-03-11T06:23:54;14.77;;;10.35;;
40367;SDS011;26075;43.320;21.920;2023-03-11T06:28:55;17.38;;;10.77;;
40367;SDS011;26075;43.320;21.920;2023-03-11T06:33:57;17.23;;;11.13;;
40367;SDS011;26075;43.320;21.920;2023-03-11T06:38:58;8.65;;;4.80;;
40367;SDS011;26075;43.320;21.920;2023-03-11T06:43:59;11.02;;;5.35;;
40367;SDS011;26075;43.320;21.920;2023-03-11T06:49:00;10.65;;;6.18;;
40367;SDS011;26075;43.320;21.920;2023-03-11T06:54:01;12.55;;;9.38;;
40367;SDS011;26075;43.320;21.920;2023-03-11T06:59:02;13.10;;;8.75;;
40367;SDS011;26075;43.320;21.920;2023-03-11T07:04:03;14.30;;;9.85;;
40367;SDS011;26075;43.320;21.920;2023-03-11T07:09:04;14.23;;;8.02;;
40367;SDS011;26075;43.320;21.920;2023-03-11T07:14:05;15.95;;;8.80;;
40367;SDS011;26075;43.320;21.920;2023-03-11T07:19:07;10.70;;;8.20;;
40367;SDS011;26075;43.320;21.920;2023-03-11T07:24:09;9.63;;;6.32;;
40367;SDS011;26075;43.320;21.920;2023-03-11T07:29:11;10.00;;;6.95;;
40367;SDS011;26075;43.320;21.920;2023-03-11T07:34:12;8.75;;;6.28;;
40367;SDS011;26075;43.320;21.920;2023-03-11T07:39:17;10.57;;;5.18;;
40367;SDS011;26075;43.320;21.920;2023-03-11T07:44:18;11.05;;;6.30;;
40367;SDS011;26075;43.320;21.920;2023-03-11T07:49:20;9.23;;;6.40;;
40367;SDS011;26075;43.320;21.920;2023-03-11T07:54:21;10.45;;;6.78;;
40367;SDS011;26075;43.320;21.920;2023-03-11T07:59:22;10.35;;;7.05;;
40367;SDS011;26075;43.320;21.920;2023-03-11T08:04:23;12.73;;;8.90;;
40367;SDS011;26075;43.320;21.920;2023-03-11T08:09:24;20.27;;;12.50;;
40367;SDS011;26075;43.320;21.920;2023-03-11T08:14:25;19.50;;;12.55;;
40367;SDS011;26075;43.320;21.920;2023-03-11T08:19:26;18.13;;;11.48;;
40367;SDS011;26075;43.320;21.920;2023-03-11T08:24:27;15.65;;;10.60;;
40367;SDS011;26075;43.320;21.920;2023-03-11T08:29:28;17.65;;;10.48;;
40367;SDS011;26075;43.320;21.920;2023-03-11T08:34:29;13.43;;;8.77;;
40367;SDS011;26075;43.320;21.920;2023-03-11T08:39:31;12.73;;;7.90;;
40367;SDS011;26075;43.320;21.920;2023-03-11T08:44:33;15.88;;;8.25;;
40367;SDS011;26075;43.320;21.920;2023-03-11T08:49:34;13.32;;;7.63;;
40367;SDS011;26075;43.320;21.920;2023-03-11T08:54:35;13.45;;;8.23;;
40367;SDS011;26075;43.320;21.920;2023-03-11T08:59:36;11.80;;;7.90;;
40367;SDS011;26075;43.320;21.920;2023-03-11T09:04:37;13.00;;;8.35;;
40367;SDS011;26075;43.320;21.920;2023-03-11T09:09:38;12.20;;;7.28;;
40367;SDS011;26075;43.320;21.920;2023-03-11T09:14:39;12.48;;;7.63;;
40367;SDS011;26075;43.320;21.920;2023-03-11T09:19:40;10.88;;;7.20;;
40367;SDS011;26075;43.320;21.920;2023-03-11T09:24:41;19.45;;;8.27;;
40367;SDS011;26075;43.320;21.920;2023-03-11T09:29:42;13.80;;;9.80;;
40367;SDS011;26075;43.320;21.920;2023-03-11T09:34:44;16.73;;;8.50;;
40367;SDS011;26075;43.320;21.920;2023-03-11T09:39:45;14.45;;;9.32;;
40367;SDS011;26075;43.320;21.920;2023-03-11T09:55:23;12.20;;;5.75;;
40367;SDS011;26075;43.320;21.920;2023-03-11T10:00:26;11.98;;;4.53;;
40367;SDS011;26075;43.320;21.920;2023-03-11T10:05:28;9.20;;;3.97;;
40367;SDS011;26075;43.320;21.920;2023-03-11T10:10:31;10.65;;;3.75;;
40367;SDS011;26075;43.320;21.920;2023-03-11T10:30:56;7.47;;;3.92;;
40367;SDS011;26075;43.320;21.920;2023-03-11T10:35:59;6.43;;;2.10;;
40367;SDS011;26075;43.320;21.920;2023-03-11T10:41:02;6.47;;;2.95;;
40367;SDS011;26075;43.320;21.920;2023-03-11T10:46:06;6.90;;;3.13;;
40367;SDS011;26075;43.320;21.920;2023-03-11T10:51:15;5.75;;;3.42;;
40367;SDS011;26075;43.320;21.920;2023-03-11T11:01:25;5.85;;;3.10;;
40367;SDS011;26075;43.320;21.920;2023-03-11T11:11:28;7.07;;;2.95;;
40367;SDS011;26075;43.320;21.920;2023-03-11T11:16:31;4.95;;;3.22;;
40367;SDS011;26075;43.320;21.920;2023-03-11T11:21:38;5.18;;;3.03;;
40367;SDS011;26075;43.320;21.920;2023-03-11T11:26:40;5.47;;;2.75;;
40367;SDS011;26075;43.320;21.920;2023-03-11T11:31:44;7.35;;;2.95;;
40367;SDS011;26075;43.320;21.920;2023-03-11T11:36:46;4.43;;;3.20;;
40367;SDS011;26075;43.320;21.920;2023-03-11T11:41:47;4.10;;;3.00;;
40367;SDS011;26075;43.320;21.920;2023-03-11T11:46:56;6.05;;;3.55;;
40367;SDS011;26075;43.320;21.920;2023-03-11T11:57:12;8.32;;;3.90;;
40367;SDS011;26075;43.320;21.920;2023-03-11T12:07:43;7.30;;;4.20;;
40367;SDS011;26075;43.320;21.920;2023-03-11T12:18:12;6.00;;;4.32;;
40367;SDS011;26075;43.320;21.920;2023-03-11T12:28:21;9.52;;;3.20;;
40367;SDS011;26075;43.320;21.920;2023-03-11T12:33:31;10.45;;;4.13;;
40367;SDS011;26075;43.320;21.920;2023-03-11T12:38:37;9.30;;;3.78;;
40367;SDS011;26075;43.320;21.920;2023-03-11T12:48:43;5.47;;;2.90;;
40367;SDS011;26075;43.320;21.920;2023-03-11T12:53:46;9.07;;;2.22;;
40367;SDS011;26075;43.320;21.920;2023-03-11T12:58:53;5.72;;;2.10;;
40367;SDS011;26075;43.320;21.920;2023-03-11T13:09:12;12.95;;;2.65;;
40367;SDS011;26075;43.320;21.920;2023-03-11T13:19:50;7.55;;;2.40;;
40367;SDS011;26075;43.320;21.920;2023-03-11T13:24:49;8.70;;;2.80;;
40367;SDS011;26075;43.320;21.920;2023-03-11T13:40:00;5.25;;;2.70;;
40367;SDS011;26075;43.320;21.920;2023-03-11T13:45:02;6.47;;;2.22;;
40367;SDS011;26075;43.320;21.920;2023-03-11T13:55:14;9.52;;;2.47;;
40367;SDS011;26075;43.320;21.920;2023-03-11T14:00:18;8.20;;;2.30;;
40367;SDS011;26075;43.320;21.920;2023-03-11T14:10:25;9.63;;;2.90;;
40367;SDS011;26075;43.320;21.920;2023-03-11T14:15:27;7.50;;;3.25;;
40367;SDS011;26075;43.320;21.920;2023-03-11T14:20:28;7.00;;;2.90;;
40367;SDS011;26075;43.320;21.920;2023-03-11T14:25:29;8.57;;;2.42;;
40367;SDS011;26075;43.320;21.920;2023-03-11T14:30:31;9.63;;;3.33;;
40367;SDS011;26075;43.320;21.920;2023-03-11T14:35:33;7.82;;;4.03;;
40367;SDS011;26075;43.320;21.920;2023-03-11T14:40:34;5.97;;;3.50;;
40367;SDS011;26075;43.320;21.920;2023-03-11T14:45:37;14.60;;;5.40;;
40367;SDS011;26075;43.320;21.920;2023-03-11T14:50:40;7.88;;;4.05;;
40367;SDS011;26075;43.320;21.920;2023-03-11T15:01:01;11.52;;;5.50;;
40367;SDS011;26075;43.320;21.920;2023-03-11T15:06:01;8.00;;;4.70;;
40367;SDS011;26075;43.320;21.920;2023-03-11T15:11:13;15.27;;;5.38;;
40367;SDS011;26075;43.320;21.920;2023-03-11T15:16:29;9.05;;;4.50;;
40367;SDS011;26075;43.320;21.920;2023-03-11T15:21:30;9.20;;;4.40;;
40367;SDS011;26075;43.320;21.920;2023-03-11T15:26:32;11.13;;;5.18;;
40367;SDS011;26075;43.320;21.920;2023-03-11T15:31:35;6.82;;;4.60;;
40367;SDS011;26075;43.320;21.920;2023-03-11T15:36:38;8.13;;;5.15;;
40367;SDS011;26075;43.320;21.920;2023-03-11T15:41:40;10.68;;;6.20;;
40367;SDS011;26075;43.320;21.920;2023-03-11T15:46:41;9.02;;;5.40;;
40367;SDS011;26075;43.320;21.920;2023-03-11T15:51:42;17.60;;;5.53;;
40367;SDS011;26075;43.320;21.920;2023-03-11T15:56:43;11.18;;;6.45;;
40367;SDS011;26075;43.320;21.920;2023-03-11T16:01:45;7.93;;;5.38;;
40367;SDS011;26075;43.320;21.920;2023-03-11T16:06:46;11.70;;;5.80;;
40367;SDS011;26075;43.320;21.920;2023-03-11T16:11:47;9.75;;;6.20;;
40367;SDS011;26075;43.320;21.920;2023-03-11T16:16:48;10.60;;;5.72;;
40367;SDS011;26075;43.320;21.920;2023-03-11T16:21:49;6.57;;;3.92;;
40367;SDS011;26075;43.320;21.920;2023-03-11T16:26:50;10.52;;;3.05;;
40367;SDS011;26075;43.320;21.920;2023-03-11T16:31:52;9.85;;;4.53;;
40367;SDS011;26075;43.320;21.920;2023-03-11T16:36:54;8.82;;;4.70;;
40367;SDS011;26075;43.320;21.920;2023-03-11T16:41:55;9.68;;;4.45;;
40367;SDS011;26075;43.320;21.920;2023-03-11T16:46:56;8.35;;;5.00;;
40367;SDS011;26075;43.320;21.920;2023-03-11T16:51:57;9.55;;;4.65;;
40367;SDS011;26075;43.320;21.920;2023-03-11T16:56:58;7.93;;;4.38;;
40367;SDS011;26075;43.320;21.920;2023-03-11T17:01:59;10.82;;;3.55;;
40367;SDS011;26075;43.320;21.920;2023-03-11T17:07:01;9.70;;;4.07;;
40367;SDS011;26075;43.320;21.920;2023-03-11T17:12:03;7.38;;;3.38;;
40367;SDS011;26075;43.320;21.920;2023-03-11T17:17:04;7.30;;;3.50;;
40367;SDS011;26075;43.320;21.920;2023-03-11T17:22:06;7.43;;;2.80;;
40367;SDS011;26075;43.320;21.920;2023-03-11T17:27:07;10.95;;;5.35;;
40367;SDS011;26075;43.320;21.920;2023-03-11T17:32:08;8.57;;;3.25;;
40367;SDS011;26075;43.320;21.920;2023-03-11T17:37:12;7.70;;;4.13;;
40367;SDS011;26075;43.320;21.920;2023-03-11T17:42:14;12.20;;;4.35;;
40367;SDS011;26075;43.320;21.920;2023-03-11T17:47:15;7.43;;;4.00;;
40367;SDS011;26075;43.320;21.920;2023-03-11T17:52:18;8.68;;;3.95;;
40367;SDS011;26075;43.320;21.920;2023-03-11T17:57:19;5.63;;;3.55;;
40367;SDS011;26075;43.320;21.920;2023-03-11T18:02:20;10.80;;;4.70;;
40367;SDS011;26075;43.320;21.920;2023-03-11T18:07:21;9.50;;;5.70;;
40367;SDS011;26075;43.320;21.920;2023-03-11T18:12:24;9.20;;;5.47;;
40367;SDS011;26075;43.320;21.920;2023-03-11T18:17:25;9.82;;;4.70;;
40367;SDS011;26075;43.320;21.920;2023-03-11T18:22:28;8.90;;;4.82;;
40367;SDS011;26075;43.320;21.920;2023-03-11T18:27:29;11.38;;;5.20;;
40367;SDS011;26075;43.320;21.920;2023-03-11T18:32:30;10.90;;;5.10;;
40367;SDS011;26075;43.320;21.920;2023-03-11T18:37:31;10.10;;;5.65;;
40367;SDS011;26075;43.320;21.920;2023-03-11T18:42:33;11.10;;;5.50;;
40367;SDS011;26075;43.320;21.920;2023-03-11T18:47:34;8.45;;;4.90;;
40367;SDS011;26075;43.320;21.920;2023-03-11T18:52:35;14.25;;;6.35;;
40367;SDS011;26075;43.320;21.920;2023-03-11T18:57:36;8.90;;;5.72;;
40367;SDS011;26075;43.320;21.920;2023-03-11T19:02:40;14.40;;;6.80;;
40367;SDS011;26075;43.320;21.920;2023-03-11T19:07:42;11.65;;;7.47;;
40367;SDS011;26075;43.320;21.920;2023-03-11T19:12:43;14.43;;;9.40;;
40367;SDS011;26075;43.320;21.920;2023-03-11T19:17:44;15.70;;;8.73;;
40367;SDS011;26075;43.320;21.920;2023-03-11T19:22:45;11.48;;;5.88;;
40367;SDS011;26075;43.320;21.920;2023-03-11T19:27:46;18.85;;;10.05;;
40367;SDS011;26075;43.320;21.920;2023-03-11T19:32:48;11.30;;;6.82;;
40367;SDS011;26075;43.320;21.920;2023-03-11T19:37:51;18.42;;;9.82;;
40367;SDS011;26075;43.320;21.920;2023-03-11T19:42:55;12.65;;;6.93;;
40367;SDS011;26075;43.320;21.920;2023-03-11T19:47:59;13.07;;;6.85;;
40367;SDS011;26075;43.320;21.920;2023-03-11T19:53:01;11.93;;;5.93;;
40367;SDS011;26075;43.320;21.920;2023-03-11T19:58:02;18.92;;;8.80;;
40367;SDS011;26075;43.320;21.920;2023-03-11T20:03:03;10.57;;;6.75;;
40367;SDS011;26075;43.320;21.920;2023-03-11T20:08:04;12.85;;;7.35;;
40367;SDS011;26075;43.320;21.920;2023-03-11T20:13:06;12.77;;;8.02;;
40367;SDS011;26075;43.320;21.920;2023-03-11T20:18:07;15.02;;;9.75;;
40367;SDS011;26075;43.320;21.920;2023-03-11T20:23:09;19.08;;;10.65;;
40367;SDS011;26075;43.320;21.920;2023-03-11T20:28:10;22.17;;;13.88;;
40367;SDS011;26075;43.320;21.920;2023-03-11T20:33:11;39.45;;;23.10;;
40367;SDS011;26075;43.320;21.920;2023-03-11T20:38:12;37.42;;;24.38;;
40367;SDS011;26075;43.320;21.920;2023-03-11T20:43:13;43.08;;;27.45;;
40367;SDS011;26075;43.320;21.920;2023-03-11T20:48:14;64.10;;;41.40;;
40367;SDS011;26075;43.320;21.920;2023-03-11T20:53:15;53.80;;;35.15;;
40367;SDS011;26075;43.320;21.920;2023-03-11T20:58:16;50.83;;;31.95;;
40367;SDS011;26075;43.320;21.920;2023-03-11T21:03:18;43.60;;;29.95;;
40367;SDS011;26075;43.320;21.920;2023-03-11T21:08:19;45.38;;;28.92;;
40367;SDS011;26075;43.320;21.920;2023-03-11T21:13:20;38.70;;;26.13;;
40367;SDS011;26075;43.320;21.920;2023-03-11T21:18:21;35.50;;;20.67;;
40367;SDS011;26075;43.320;21.920;2023-03-11T21:23:22;27.38;;;15.15;;
40367;SDS011;26075;43.320;21.920;2023-03-11T21:28:23;24.15;;;13.82;;
40367;SDS011;26075;43.320;21.920;2023-03-11T21:33:24;31.35;;;17.05;;
40367;SDS011;26075;43.320;21.920;2023-03-11T21:38:26;49.15;;;27.98;;
40367;SDS011;26075;43.320;21.920;2023-03-11T21:43:27;28.85;;;18.85;;
40367;SDS011;26075;43.320;21.920;2023-03-11T21:48:28;43.25;;;27.35;;
40367;SDS011;26075;43.320;21.920;2023-03-11T21:53:29;69.70;;;44.95;;
40367;SDS011;26075;43.320;21.920;2023-03-11T21:58:31;64.50;;;40.90;;
40367;SDS011;26075;43.320;21.920;2023-03-11T22:03:33;53.10;;;34.63;;
40367;SDS011;26075;43.320;21.920;2023-03-11T22:08:34;45.38;;;29.80;;
40367;SDS011;26075;43.320;21.920;2023-03-11T22:13:35;58.47;;;37.33;;
40367;SDS011;26075;43.320;21.920;2023-03-11T22:18:37;49.00;;;34.83;;
40367;SDS011;26075;43.320;21.920;2023-03-11T22:23:38;51.55;;;33.83;;
40367;SDS011;26075;43.320;21.920;2023-03-11T22:28:39;28.02;;;17.10;;
40367;SDS011;26075;43.320;21.920;2023-03-11T22:33:40;29.00;;;17.85;;
40367;SDS011;26075;43.320;21.920;2023-03-11T22:38:41;29.52;;;18.95;;
40367;SDS011;26075;43.320;21.920;2023-03-11T22:43:44;45.45;;;28.90;;
40367;SDS011;26075;43.320;21.920;2023-03-11T22:48:45;52.70;;;30.30;;
40367;SDS011;26075;43.320;21.920;2023-03-11T22:53:46;21.30;;;9.68;;
40367;SDS011;26075;43.320;21.920;2023-03-11T22:58:47;27.73;;;14.38;;
40367;SDS011;26075;43.320;21.920;2023-03-11T23:03:48;38.67;;;26.80;;
40367;SDS011;26075;43.320;21.920;2023-03-11T23:08:49;41.60;;;27.23;;
40367;SDS011;26075;43.320;21.920;2023-03-11T23:13:50;38.20;;;25.05;;
40367;SDS011;26075;43.320;21.920;2023-03-11T23:18:53;36.42;;;23.50;;
40367;SDS011;26075;43.320;21.920;2023-03-11T23:23:54;35.45;;;23.98;;
40367;SDS011;26075;43.320;21.920;2023-03-11T23:28:55;38.92;;;24.55;;
40367;SDS011;26075;43.320;21.920;2023-03-11T23:33:57;39.42;;;26.30;;
40367;SDS011;26075;43.320;21.920;2023-03-11T23:38:58;41.45;;;28.08;;
40367;SDS011;26075;43.320;21.920;2023-03-11T23:43:59;53.05;;;31.48;;
40367;SDS011;26075;43.320;21.920;2023-03-11T23:49:01;47.08;;;30.00;;
40367;SDS011;26075;43.320;21.920;2023-03-11T23:54:02;45.50;;;27.52;;
40367;SDS011;26075;43.320;21.920;2023-03-11T23:59:03;39.40;;;27.85;;
